sensor_id;sensor_type;location;lat;lon;timestamp;pressure;altitude;pressure_sealevel;temperature;humidity
70343;BME280;57767;42.068;24.752;2022-12-18T00:00:58;99471.38;;;10.96;87.36
70343;BME280;57767;42.068;24.752;2022-12-18T00:02:00;99470.56;;;10.95;87.32
70343;BME280;57767;42.068;24.752;2022-12-18T00:03:02;99467.09;;;10.95;86.92
70343;BME280;57767;42.068;24.752;2022-12-18T00:04:06;99467.47;;;10.92;87.17
70343;BME280;57767;42.068;24.752;2022-12-18T00:05:09;99467.69;;;10.90;87.12
70343;BME280;57767;42.068;24.752;2022-12-18T00:06:11;99477.41;;;10.83;87.12
70343;BME280;57767;42.068;24.752;2022-12-18T00:07:13;99476.16;;;10.79;86.93
70343;BME280;57767;42.068;24.752;2022-12-18T00:08:15;99486.50;;;10.74;87.48
70343;BME280;57767;42.068;24.752;2022-12-18T00:09:17;99478.47;;;10.61;88.00
70343;BME280;57767;42.068;24.752;2022-12-18T00:10:19;99466.03;;;10.55;88.23
70343;BME280;57767;42.068;24.752;2022-12-18T00:11:22;99494.69;;;10.58;88.39
70343;BME280;57767;42.068;24.752;2022-12-18T00:12:25;99486.00;;;10.36;88.74
70343;BME280;57767;42.068;24.752;2022-12-18T00:13:30;99490.19;;;10.24;90.43
70343;BME280;57767;42.068;24.752;2022-12-18T00:14:32;99488.44;;;10.16;90.74
70343;BME280;57767;42.068;24.752;2022-12-18T00:15:35;99490.81;;;10.26;91.81
70343;BME280;57767;42.068;24.752;2022-12-18T00:16:37;99497.56;;;10.35;91.57
70343;BME280;57767;42.068;24.752;2022-12-18T00:17:38;99491.28;;;10.36;91.69
70343;BME280;57767;42.068;24.752;2022-12-18T00:18:41;99492.50;;;10.33;91.41
70343;BME280;57767;42.068;24.752;2022-12-18T00:19:43;99494.97;;;10.41;90.23
70343;BME280;57767;42.068;24.752;2022-12-18T00:20:44;99510.59;;;10.36;90.60
70343;BME280;57767;42.068;24.752;2022-12-18T00:21:46;99507.53;;;10.39;89.60
70343;BME280;57767;42.068;24.752;2022-12-18T00:22:48;99508.38;;;10.40;90.34
70343;BME280;57767;42.068;24.752;2022-12-18T00:23:50;99504.53;;;10.43;89.75
70343;BME280;57767;42.068;24.752;2022-12-18T00:24:52;99505.94;;;10.38;89.66
70343;BME280;57767;42.068;24.752;2022-12-18T00:25:53;99479.44;;;10.25;89.53
70343;BME280;57767;42.068;24.752;2022-12-18T00:26:55;99523.69;;;10.51;89.18
70343;BME280;57767;42.068;24.752;2022-12-18T00:27:57;99515.53;;;10.46;89.30
70343;BME280;57767;42.068;24.752;2022-12-18T00:29:00;99526.72;;;10.48;89.17
70343;BME280;57767;42.068;24.752;2022-12-18T00:30:03;99522.25;;;10.49;88.93
70343;BME280;57767;42.068;24.752;2022-12-18T00:31:07;99518.38;;;10.45;88.80
70343;BME280;57767;42.068;24.752;2022-12-18T00:32:09;99531.41;;;10.53;89.12
70343;BME280;57767;42.068;24.752;2022-12-18T00:33:11;99531.22;;;10.54;88.88
70343;BME280;57767;42.068;24.752;2022-12-18T00:34:13;99530.41;;;10.54;88.24
70343;BME280;57767;42.068;24.752;2022-12-18T00:35:15;99534.06;;;10.53;88.51
70343;BME280;57767;42.068;24.752;2022-12-18T00:36:22;99538.53;;;10.52;88.17
70343;BME280;57767;42.068;24.752;2022-12-18T00:37:24;99542.97;;;10.52;88.24
70343;BME280;57767;42.068;24.752;2022-12-18T00:38:25;99541.97;;;10.53;88.13
70343;BME280;57767;42.068;24.752;2022-12-18T00:39:27;99544.44;;;10.54;87.81
70343;BME280;57767;42.068;24.752;2022-12-18T00:40:29;99540.34;;;10.52;87.96
70343;BME280;57767;42.068;24.752;2022-12-18T00:41:31;99552.16;;;10.56;88.15
70343;BME280;57767;42.068;24.752;2022-12-18T00:42:51;99543.75;;;10.46;87.82
70343;BME280;57767;42.068;24.752;2022-12-18T00:43:59;99551.50;;;10.47;88.26
70343;BME280;57767;42.068;24.752;2022-12-18T00:45:01;99559.22;;;10.49;87.66
70343;BME280;57767;42.068;24.752;2022-12-18T00:46:11;99543.09;;;10.37;88.23
70343;BME280;57767;42.068;24.752;2022-12-18T00:47:12;99543.09;;;10.37;88.44
70343;BME280;57767;42.068;24.752;2022-12-18T00:48:14;99559.41;;;10.47;87.85
70343;BME280;57767;42.068;24.752;2022-12-18T00:49:18;99561.25;;;10.47;88.14
70343;BME280;57767;42.068;24.752;2022-12-18T00:50:21;99562.88;;;10.48;87.95
70343;BME280;57767;42.068;24.752;2022-12-18T00:51:23;99556.31;;;10.44;87.53
70343;BME280;57767;42.068;24.752;2022-12-18T00:52:25;99541.63;;;10.34;87.40
70343;BME280;57767;42.068;24.752;2022-12-18T00:53:26;99550.59;;;10.40;87.43
70343;BME280;57767;42.068;24.752;2022-12-18T00:54:28;99559.59;;;10.46;87.43
70343;BME280;57767;42.068;24.752;2022-12-18T00:55:31;99551.88;;;10.44;86.79
70343;BME280;57767;42.068;24.752;2022-12-18T00:56:35;99553.88;;;10.42;86.99
70343;BME280;57767;42.068;24.752;2022-12-18T00:57:45;99550.00;;;10.38;87.48
70343;BME280;57767;42.068;24.752;2022-12-18T00:58:48;99547.53;;;10.36;87.36
70343;BME280;57767;42.068;24.752;2022-12-18T00:59:49;99544.72;;;10.38;88.26
70343;BME280;57767;42.068;24.752;2022-12-18T01:00:51;99546.53;;;10.37;87.43
70343;BME280;57767;42.068;24.752;2022-12-18T01:01:53;99550.81;;;10.38;87.88
70343;BME280;57767;42.068;24.752;2022-12-18T01:02:55;99546.72;;;10.36;87.87
70343;BME280;57767;42.068;24.752;2022-12-18T01:03:56;99545.72;;;10.37;87.74
70343;BME280;57767;42.068;24.752;2022-12-18T01:04:58;99548.78;;;10.40;87.61
70343;BME280;57767;42.068;24.752;2022-12-18T01:06:06;99559.59;;;10.46;87.90
70343;BME280;57767;42.068;24.752;2022-12-18T01:07:07;99551.88;;;10.44;88.24
70343;BME280;57767;42.068;24.752;2022-12-18T01:08:09;99551.06;;;10.44;87.97
70343;BME280;57767;42.068;24.752;2022-12-18T01:09:11;99551.88;;;10.44;88.93
70343;BME280;57767;42.068;24.752;2022-12-18T01:10:13;99552.25;;;10.41;88.73
70343;BME280;57767;42.068;24.752;2022-12-18T01:11:17;99554.25;;;10.39;89.71
70343;BME280;57767;42.068;24.752;2022-12-18T01:12:19;99541.19;;;10.31;89.40
70343;BME280;57767;42.068;24.752;2022-12-18T01:13:21;99554.06;;;10.40;90.59
70343;BME280;57767;42.068;24.752;2022-12-18T01:14:22;99531.81;;;10.28;90.28
70343;BME280;57767;42.068;24.752;2022-12-18T01:15:24;99553.06;;;10.41;90.55
70343;BME280;57767;42.068;24.752;2022-12-18T01:16:26;99551.06;;;10.44;90.26
70343;BME280;57767;42.068;24.752;2022-12-18T01:17:28;99549.84;;;10.46;89.89
70343;BME280;57767;42.068;24.752;2022-12-18T01:18:30;99557.22;;;10.51;89.93
70343;BME280;57767;42.068;24.752;2022-12-18T01:19:31;99552.53;;;10.53;89.57
70343;BME280;57767;42.068;24.752;2022-12-18T01:20:33;99556.81;;;10.54;89.59
70343;BME280;57767;42.068;24.752;2022-12-18T01:21:35;99549.09;;;10.52;89.81
70343;BME280;57767;42.068;24.752;2022-12-18T01:22:36;99546.88;;;10.56;89.97
70343;BME280;57767;42.068;24.752;2022-12-18T01:23:38;99532.19;;;10.47;89.77
70343;BME280;57767;42.068;24.752;2022-12-18T01:24:41;99542.97;;;10.52;90.49
70343;BME280;57767;42.068;24.752;2022-12-18T01:25:42;99545.03;;;10.50;90.35
70343;BME280;57767;42.068;24.752;2022-12-18T01:26:44;99546.03;;;10.49;90.86
70343;BME280;57767;42.068;24.752;2022-12-18T01:27:46;99549.91;;;10.53;91.16
70343;BME280;57767;42.068;24.752;2022-12-18T01:28:47;99547.88;;;10.55;91.35
70343;BME280;57767;42.068;24.752;2022-12-18T01:29:49;99545.25;;;10.55;90.93
70343;BME280;57767;42.068;24.752;2022-12-18T01:30:51;99547.69;;;10.56;91.07
70343;BME280;57767;42.068;24.752;2022-12-18T01:31:55;99545.06;;;10.56;90.93
70343;BME280;57767;42.068;24.752;2022-12-18T01:32:57;99537.78;;;10.58;91.71
70343;BME280;57767;42.068;24.752;2022-12-18T01:34:03;99538.22;;;10.62;91.66
70343;BME280;57767;42.068;24.752;2022-12-18T01:35:06;99530.66;;;10.59;91.61
70343;BME280;57767;42.068;24.752;2022-12-18T01:36:08;99531.66;;;10.58;91.58
70343;BME280;57767;42.068;24.752;2022-12-18T01:37:15;99542.28;;;10.64;91.55
70343;BME280;57767;42.068;24.752;2022-12-18T01:38:17;99532.53;;;10.65;91.67
70343;BME280;57767;42.068;24.752;2022-12-18T01:39:19;99529.88;;;10.65;92.55
70343;BME280;57767;42.068;24.752;2022-12-18T01:40:21;99541.34;;;10.72;92.15
70343;BME280;57767;42.068;24.752;2022-12-18T01:41:25;99528.31;;;10.70;91.89
70343;BME280;57767;42.068;24.752;2022-12-18T01:42:27;99539.13;;;10.75;92.28
70343;BME280;57767;42.068;24.752;2022-12-18T01:46:02;99534.69;;;10.83;91.76
70343;BME280;57767;42.068;24.752;2022-12-18T01:47:04;99523.13;;;10.84;91.91
70343;BME280;57767;42.068;24.752;2022-12-18T01:48:07;99526.59;;;10.84;91.12
70343;BME280;57767;42.068;24.752;2022-12-18T01:49:10;99534.72;;;10.89;91.25
70343;BME280;57767;42.068;24.752;2022-12-18T01:50:21;99534.53;;;10.91;91.56
70343;BME280;57767;42.068;24.752;2022-12-18T01:51:24;99539.63;;;10.92;90.63
70343;BME280;57767;42.068;24.752;2022-12-18T01:52:29;99532.72;;;10.91;90.92
70343;BME280;57767;42.068;24.752;2022-12-18T01:53:32;99540.25;;;10.94;90.69
70343;BME280;57767;42.068;24.752;2022-12-18T01:54:34;99540.44;;;10.93;90.24
70343;BME280;57767;42.068;24.752;2022-12-18T01:55:43;99547.56;;;10.92;90.47
70343;BME280;57767;42.068;24.752;2022-12-18T01:56:46;99549.56;;;10.90;90.65
70343;BME280;57767;42.068;24.752;2022-12-18T01:57:49;99544.06;;;10.85;90.44
70343;BME280;57767;42.068;24.752;2022-12-18T01:58:55;99556.31;;;10.93;90.94
70343;BME280;57767;42.068;24.752;2022-12-18T02:00:07;99552.84;;;10.92;90.81
70343;BME280;57767;42.068;24.752;2022-12-18T02:01:10;99552.84;;;10.92;90.52
70343;BME280;57767;42.068;24.752;2022-12-18T02:02:12;99546.94;;;10.90;89.91
70343;BME280;57767;42.068;24.752;2022-12-18T02:03:14;99557.56;;;10.97;90.43
70343;BME280;57767;42.068;24.752;2022-12-18T02:05:46;99553.72;;;10.99;90.25
70343;BME280;57767;42.068;24.752;2022-12-18T02:09:47;99567.75;;;11.00;89.98
70343;BME280;57767;42.068;24.752;2022-12-18T02:11:39;99575.50;;;11.01;90.19
70343;BME280;57767;42.068;24.752;2022-12-18T02:18:30;99556.56;;;10.98;89.51
70343;BME280;57767;42.068;24.752;2022-12-18T02:22:26;99572.03;;;11.01;90.08
70343;BME280;57767;42.068;24.752;2022-12-18T02:26:56;99578.31;;;11.00;89.50
70343;BME280;57767;42.068;24.752;2022-12-18T02:28:02;99580.78;;;11.01;89.12
70343;BME280;57767;42.068;24.752;2022-12-18T02:29:14;99577.31;;;11.01;89.02
70343;BME280;57767;42.068;24.752;2022-12-18T02:30:18;99573.84;;;11.00;89.29
70343;BME280;57767;42.068;24.752;2022-12-18T02:31:26;99582.00;;;11.05;88.93
70343;BME280;57767;42.068;24.752;2022-12-18T02:32:31;99579.56;;;11.04;88.67
70343;BME280;57767;42.068;24.752;2022-12-18T02:33:36;99573.44;;;11.03;89.33
70343;BME280;57767;42.068;24.752;2022-12-18T02:34:40;99566.94;;;10.99;89.07
70343;BME280;57767;42.068;24.752;2022-12-18T02:35:44;99567.56;;;11.01;89.26
70343;BME280;57767;42.068;24.752;2022-12-18T02:36:48;99567.97;;;11.05;88.89
70343;BME280;57767;42.068;24.752;2022-12-18T02:37:53;99553.72;;;10.99;88.49
70343;BME280;57767;42.068;24.752;2022-12-18T02:38:56;99563.28;;;11.00;88.00
70343;BME280;57767;42.068;24.752;2022-12-18T02:40:02;99566.75;;;11.01;88.66
70343;BME280;57767;42.068;24.752;2022-12-18T02:41:05;99566.75;;;11.01;88.27
70343;BME280;57767;42.068;24.752;2022-12-18T02:42:07;99568.97;;;11.04;88.27
70343;BME280;57767;42.068;24.752;2022-12-18T02:43:11;99571.44;;;11.05;87.57
70343;BME280;57767;42.068;24.752;2022-12-18T02:44:13;99567.34;;;11.03;87.39
70343;BME280;57767;42.068;24.752;2022-12-18T02:45:16;99570.63;;;11.05;87.65
70343;BME280;57767;42.068;24.752;2022-12-18T02:46:49;99572.44;;;11.04;87.79
70343;BME280;57767;42.068;24.752;2022-12-18T02:47:51;99564.69;;;11.03;87.33
70343;BME280;57767;42.068;24.752;2022-12-18T02:49:01;99562.50;;;11.06;87.01
70343;BME280;57767;42.068;24.752;2022-12-18T02:50:14;99564.94;;;11.01;86.99
70343;BME280;57767;42.068;24.752;2022-12-18T02:51:53;99556.19;;;11.01;87.17
70343;BME280;57767;42.068;24.752;2022-12-18T02:54:57;99566.75;;;11.01;87.18
70343;BME280;57767;42.068;24.752;2022-12-18T02:58:59;99568.06;;;10.90;86.93
70343;BME280;57767;42.068;24.752;2022-12-18T03:00:39;99568.47;;;10.87;87.54
70343;BME280;57767;42.068;24.752;2022-12-18T03:03:30;99572.50;;;10.83;87.26
70343;BME280;57767;42.068;24.752;2022-12-18T03:04:59;99571.06;;;10.81;87.74
70343;BME280;57767;42.068;24.752;2022-12-18T03:06:10;99572.88;;;10.80;87.87
70343;BME280;57767;42.068;24.752;2022-12-18T03:07:21;99566.97;;;10.78;87.50
70343;BME280;57767;42.068;24.752;2022-12-18T03:08:29;99574.69;;;10.80;88.22
70343;BME280;57767;42.068;24.752;2022-12-18T03:09:36;99566.78;;;10.80;88.38
70343;BME280;57767;42.068;24.752;2022-12-18T03:10:43;99573.69;;;10.81;87.58
70343;BME280;57767;42.068;24.752;2022-12-18T03:11:53;99567.22;;;10.83;87.87
70343;BME280;57767;42.068;24.752;2022-12-18T03:13:21;99574.13;;;10.84;87.53
70343;BME280;57767;42.068;24.752;2022-12-18T03:14:32;99574.13;;;10.84;87.29
70343;BME280;57767;42.068;24.752;2022-12-18T03:15:40;99574.13;;;10.84;87.25
70343;BME280;57767;42.068;24.752;2022-12-18T03:16:45;99571.69;;;10.83;87.00
70343;BME280;57767;42.068;24.752;2022-12-18T03:17:54;99571.88;;;10.81;86.86
70343;BME280;57767;42.068;24.752;2022-12-18T03:19:01;99579.22;;;10.86;86.88
70343;BME280;57767;42.068;24.752;2022-12-18T03:20:10;99585.34;;;10.86;86.70
70343;BME280;57767;42.068;24.752;2022-12-18T03:21:16;99584.72;;;10.84;85.85
70343;BME280;57767;42.068;24.752;2022-12-18T03:22:22;99587.50;;;10.76;85.67
70343;BME280;57767;42.068;24.752;2022-12-18T03:23:27;99592.91;;;10.68;86.11
70343;BME280;57767;42.068;24.752;2022-12-18T03:24:31;99583.66;;;10.57;86.29
70343;BME280;57767;42.068;24.752;2022-12-18T03:25:37;99584.38;;;10.45;87.21
70343;BME280;57767;42.068;24.752;2022-12-18T03:26:42;99589.91;;;10.50;87.09
70343;BME280;57767;42.068;24.752;2022-12-18T03:27:49;99595.59;;;10.53;87.07
70343;BME280;57767;42.068;24.752;2022-12-18T03:28:56;99591.16;;;10.54;86.67
70343;BME280;57767;42.068;24.752;2022-12-18T03:30:04;99592.97;;;10.53;86.83
70343;BME280;57767;42.068;24.752;2022-12-18T03:31:10;99590.66;;;10.44;86.60
70343;BME280;57767;42.068;24.752;2022-12-18T03:32:26;99599.94;;;10.39;86.21
70343;BME280;57767;42.068;24.752;2022-12-18T03:33:38;99602.59;;;10.39;86.19
70343;BME280;57767;42.068;24.752;2022-12-18T03:34:43;99598.00;;;10.27;86.67
70343;BME280;57767;42.068;24.752;2022-12-18T03:35:47;99601.44;;;10.27;86.99
70343;BME280;57767;42.068;24.752;2022-12-18T03:36:49;99602.44;;;10.26;87.04
70343;BME280;57767;42.068;24.752;2022-12-18T03:37:51;99607.34;;;10.29;87.00
70343;BME280;57767;42.068;24.752;2022-12-18T03:38:53;99599.44;;;10.29;87.10
70343;BME280;57767;42.068;24.752;2022-12-18T03:39:54;99610.09;;;10.36;86.98
70343;BME280;57767;42.068;24.752;2022-12-18T03:41:11;99608.63;;;10.33;87.23
70343;BME280;57767;42.068;24.752;2022-12-18T03:45:12;99611.91;;;10.35;87.60
70343;BME280;57767;42.068;24.752;2022-12-18T03:47:39;99621.31;;;10.45;87.78
70343;BME280;57767;42.068;24.752;2022-12-18T03:48:53;99620.69;;;10.43;87.95
70343;BME280;57767;42.068;24.752;2022-12-18T03:50:02;99619.50;;;10.45;88.08
70343;BME280;57767;42.068;24.752;2022-12-18T03:51:30;99607.50;;;10.43;88.65
70343;BME280;57767;42.068;24.752;2022-12-18T03:53:02;99627.88;;;10.49;88.79
70343;BME280;57767;42.068;24.752;2022-12-18T03:54:10;99626.88;;;10.50;88.81
70343;BME280;57767;42.068;24.752;2022-12-18T03:55:13;99633.56;;;10.52;88.88
70343;BME280;57767;42.068;24.752;2022-12-18T03:56:16;99630.13;;;10.52;89.05
70343;BME280;57767;42.068;24.752;2022-12-18T03:57:21;99632.84;;;10.58;88.54
70343;BME280;57767;42.068;24.752;2022-12-18T03:58:25;99608.94;;;10.45;89.50
70343;BME280;57767;42.068;24.752;2022-12-18T03:59:28;99636.53;;;10.64;88.47
70343;BME280;57767;42.068;24.752;2022-12-18T04:00:31;99634.72;;;10.64;88.81
70343;BME280;57767;42.068;24.752;2022-12-18T04:01:40;99628.88;;;10.69;89.30
70343;BME280;57767;42.068;24.752;2022-12-18T04:02:47;99640.69;;;10.73;88.76
70343;BME280;57767;42.068;24.752;2022-12-18T04:03:51;99641.50;;;10.73;88.62
70343;BME280;57767;42.068;24.752;2022-12-18T04:04:56;99646.81;;;10.73;88.79
70343;BME280;57767;42.068;24.752;2022-12-18T04:06:00;99639.25;;;10.70;88.75
70343;BME280;57767;42.068;24.752;2022-12-18T04:07:03;99646.41;;;10.76;88.87
70343;BME280;57767;42.068;24.752;2022-12-18T04:08:05;99643.97;;;10.75;88.82
70343;BME280;57767;42.068;24.752;2022-12-18T04:09:07;99651.25;;;10.73;88.76
70343;BME280;57767;42.068;24.752;2022-12-18T04:10:10;99640.69;;;10.73;88.85
70343;BME280;57767;42.068;24.752;2022-12-18T04:11:13;99646.41;;;10.76;88.82
70343;BME280;57767;42.068;24.752;2022-12-18T04:12:14;99639.69;;;10.74;88.05
70343;BME280;57767;42.068;24.752;2022-12-18T04:13:25;99647.84;;;10.79;87.94
70343;BME280;57767;42.068;24.752;2022-12-18T04:14:28;99644.19;;;10.80;87.79
70343;BME280;57767;42.068;24.752;2022-12-18T04:15:33;99648.09;;;10.84;87.98
70343;BME280;57767;42.068;24.752;2022-12-18T04:16:36;99647.28;;;10.84;87.81
70343;BME280;57767;42.068;24.752;2022-12-18T04:17:38;99649.56;;;10.87;87.31
70343;BME280;57767;42.068;24.752;2022-12-18T04:18:40;99645.41;;;10.77;87.08
70343;BME280;57767;42.068;24.752;2022-12-18T04:19:42;99648.03;;;10.77;86.79
70343;BME280;57767;42.068;24.752;2022-12-18T04:20:43;99645.03;;;10.81;86.69
70343;BME280;57767;42.068;24.752;2022-12-18T04:21:45;99650.50;;;10.79;86.62
70343;BME280;57767;42.068;24.752;2022-12-18T04:22:47;99648.84;;;10.78;85.59
70343;BME280;57767;42.068;24.752;2022-12-18T04:23:49;99646.34;;;10.70;85.73
70343;BME280;57767;42.068;24.752;2022-12-18T04:24:51;99647.22;;;10.77;86.03
70343;BME280;57767;42.068;24.752;2022-12-18T04:25:53;99650.50;;;10.79;86.13
70343;BME280;57767;42.068;24.752;2022-12-18T04:26:54;99646.84;;;10.80;85.37
70343;BME280;57767;42.068;24.752;2022-12-18T04:27:56;99665.09;;;10.75;85.73
70343;BME280;57767;42.068;24.752;2022-12-18T04:28:58;99659.59;;;10.76;85.27
70343;BME280;57767;42.068;24.752;2022-12-18T04:29:59;99652.28;;;10.72;85.04
70343;BME280;57767;42.068;24.752;2022-12-18T04:31:01;99660.44;;;10.77;85.30
70343;BME280;57767;42.068;24.752;2022-12-18T04:32:04;99659.06;;;10.81;85.30
70343;BME280;57767;42.068;24.752;2022-12-18T04:33:12;99660.81;;;10.74;85.67
70343;BME280;57767;42.068;24.752;2022-12-18T04:34:15;99657.38;;;10.73;85.07
70343;BME280;57767;42.068;24.752;2022-12-18T04:35:16;99653.66;;;10.68;85.18
70343;BME280;57767;42.068;24.752;2022-12-18T04:36:18;99660.81;;;10.74;84.85
70343;BME280;57767;42.068;24.752;2022-12-18T04:37:20;99670.38;;;10.75;85.13
70343;BME280;57767;42.068;24.752;2022-12-18T04:38:22;99672.03;;;10.76;84.92
70343;BME280;57767;42.068;24.752;2022-12-18T04:39:24;99670.38;;;10.75;84.88
70343;BME280;57767;42.068;24.752;2022-12-18T04:40:26;99672.22;;;10.74;84.29
70343;BME280;57767;42.068;24.752;2022-12-18T04:41:28;99677.69;;;10.73;84.79
70343;BME280;57767;42.068;24.752;2022-12-18T04:42:29;99673.41;;;10.72;84.26
70343;BME280;57767;42.068;24.752;2022-12-18T04:43:31;99678.09;;;10.76;84.03
70343;BME280;57767;42.068;24.752;2022-12-18T04:44:34;99674.22;;;10.72;84.25
70343;BME280;57767;42.068;24.752;2022-12-18T04:45:35;99673.22;;;10.73;84.05
70343;BME280;57767;42.068;24.752;2022-12-18T04:46:37;99680.94;;;10.75;84.68
70343;BME280;57767;42.068;24.752;2022-12-18T04:47:39;99674.22;;;10.72;84.44
70343;BME280;57767;42.068;24.752;2022-12-18T04:48:41;99683.19;;;10.78;84.18
70343;BME280;57767;42.068;24.752;2022-12-18T04:49:42;99683.38;;;10.76;84.43
70343;BME280;57767;42.068;24.752;2022-12-18T04:50:44;99682.59;;;10.76;84.33
70343;BME280;57767;42.068;24.752;2022-12-18T04:51:46;99680.94;;;10.75;84.78
70343;BME280;57767;42.068;24.752;2022-12-18T04:52:48;99687.47;;;10.79;84.33
70343;BME280;57767;42.068;24.752;2022-12-18T04:53:49;99691.13;;;10.78;84.39
70343;BME280;57767;42.068;24.752;2022-12-18T04:54:51;99681.38;;;10.78;84.81
70343;BME280;57767;42.068;24.752;2022-12-18T04:56:09;99681.13;;;10.73;84.35
70343;BME280;57767;42.068;24.752;2022-12-18T04:57:12;99682.97;;;10.73;84.37
70343;BME280;57767;42.068;24.752;2022-12-18T04:58:13;99687.78;;;10.69;84.70
70343;BME280;57767;42.068;24.752;2022-12-18T04:59:15;99693.44;;;10.66;85.05
70343;BME280;57767;42.068;24.752;2022-12-18T05:00:17;99690.47;;;10.55;84.92
70343;BME280;57767;42.068;24.752;2022-12-18T05:01:19;99697.78;;;10.53;85.35
70343;BME280;57767;42.068;24.752;2022-12-18T05:02:21;99694.06;;;10.47;85.63
70343;BME280;57767;42.068;24.752;2022-12-18T05:03:23;99691.44;;;10.47;85.47
70343;BME280;57767;42.068;24.752;2022-12-18T05:04:24;99700.81;;;10.50;84.98
70343;BME280;57767;42.068;24.752;2022-12-18T05:05:26;99686.25;;;10.39;84.91
70343;BME280;57767;42.068;24.752;2022-12-18T05:06:28;99698.06;;;10.43;84.95
70343;BME280;57767;42.068;24.752;2022-12-18T05:07:30;99699.66;;;10.37;84.96
70343;BME280;57767;42.068;24.752;2022-12-18T05:08:32;99702.91;;;10.39;84.44
70343;BME280;57767;42.068;24.752;2022-12-18T05:09:34;99710.63;;;10.41;84.58
70343;BME280;57767;42.068;24.752;2022-12-18T05:10:35;99710.00;;;10.39;84.87
70343;BME280;57767;42.068;24.752;2022-12-18T05:11:38;99705.53;;;10.39;84.87
70343;BME280;57767;42.068;24.752;2022-12-18T05:12:40;99709.56;;;10.35;84.93
70343;BME280;57767;42.068;24.752;2022-12-18T05:14:00;99710.75;;;10.33;84.42
70343;BME280;57767;42.068;24.752;2022-12-18T05:15:02;99712.28;;;10.42;84.20
70343;BME280;57767;42.068;24.752;2022-12-18T05:16:05;99720.00;;;10.44;84.29
70343;BME280;57767;42.068;24.752;2022-12-18T05:17:07;99718.56;;;10.41;84.52
70343;BME280;57767;42.068;24.752;2022-12-18T05:18:09;99718.38;;;10.43;84.07
70343;BME280;57767;42.068;24.752;2022-12-18T05:19:10;99717.19;;;10.45;84.52
70343;BME280;57767;42.068;24.752;2022-12-18T05:20:13;99727.31;;;10.41;84.35
70343;BME280;57767;42.068;24.752;2022-12-18T05:21:15;99729.94;;;10.41;84.39
70343;BME280;57767;42.068;24.752;2022-12-18T05:22:17;99731.75;;;10.41;84.29
70343;BME280;57767;42.068;24.752;2022-12-18T05:23:19;99733.41;;;10.42;84.31
70343;BME280;57767;42.068;24.752;2022-12-18T05:24:22;99730.50;;;10.37;84.61
70343;BME280;57767;42.068;24.752;2022-12-18T05:25:23;99739.50;;;10.43;84.17
70343;BME280;57767;42.068;24.752;2022-12-18T05:26:25;99743.78;;;10.44;84.75
70343;BME280;57767;42.068;24.752;2022-12-18T05:27:27;99741.78;;;10.46;83.94
70343;BME280;57767;42.068;24.752;2022-12-18T05:28:30;99734.34;;;10.34;84.12
70343;BME280;57767;42.068;24.752;2022-12-18T05:29:32;99740.06;;;10.38;84.26
70343;BME280;57767;42.068;24.752;2022-12-18T05:30:34;99736.16;;;10.34;84.26
70343;BME280;57767;42.068;24.752;2022-12-18T05:31:35;99734.06;;;10.29;84.21
70343;BME280;57767;42.068;24.752;2022-12-18T05:32:40;99752.44;;;10.37;83.92
70343;BME280;57767;42.068;24.752;2022-12-18T05:33:42;99742.97;;;10.28;84.19
70343;BME280;57767;42.068;24.752;2022-12-18T05:34:44;99748.53;;;10.33;84.26
70343;BME280;57767;42.068;24.752;2022-12-18T05:35:54;99748.25;;;10.28;84.83
70343;BME280;57767;42.068;24.752;2022-12-18T05:36:56;99747.00;;;10.24;84.95
70343;BME280;57767;42.068;24.752;2022-12-18T05:37:57;99750.72;;;10.30;84.53
70343;BME280;57767;42.068;24.752;2022-12-18T05:39:00;99747.44;;;10.28;84.92
70343;BME280;57767;42.068;24.752;2022-12-18T05:40:04;99729.97;;;10.12;85.04
70343;BME280;57767;42.068;24.752;2022-12-18T05:41:07;99757.81;;;10.29;84.97
70343;BME280;57767;42.068;24.752;2022-12-18T05:42:08;99757.19;;;10.27;84.71
70343;BME280;57767;42.068;24.752;2022-12-18T05:43:11;99762.44;;;10.27;84.94
70343;BME280;57767;42.068;24.752;2022-12-18T05:44:19;99751.66;;;10.22;84.08
70343;BME280;57767;42.068;24.752;2022-12-18T05:45:21;99760.94;;;10.18;84.14
70343;BME280;57767;42.068;24.752;2022-12-18T05:46:23;99770.16;;;10.14;84.00
70343;BME280;57767;42.068;24.752;2022-12-18T05:47:26;99770.81;;;10.16;84.52
70343;BME280;57767;42.068;24.752;2022-12-18T05:48:28;99766.72;;;10.14;84.04
70343;BME280;57767;42.068;24.752;2022-12-18T05:49:30;99771.47;;;10.18;84.71
70343;BME280;57767;42.068;24.752;2022-12-18T05:50:39;99766.91;;;10.12;84.05
70343;BME280;57767;42.068;24.752;2022-12-18T05:51:41;99778.09;;;10.14;84.24
70343;BME280;57767;42.068;24.752;2022-12-18T05:52:43;99778.09;;;10.14;84.82
70343;BME280;57767;42.068;24.752;2022-12-18T05:53:45;99785.38;;;10.12;85.06
70343;BME280;57767;42.068;24.752;2022-12-18T05:54:47;99785.38;;;10.12;84.61
70343;BME280;57767;42.068;24.752;2022-12-18T05:55:48;99776.81;;;10.10;84.63
70343;BME280;57767;42.068;24.752;2022-12-18T05:56:50;99790.56;;;10.05;85.07
70343;BME280;57767;42.068;24.752;2022-12-18T05:57:52;99783.81;;;10.03;85.12
70343;BME280;57767;42.068;24.752;2022-12-18T05:58:54;99784.28;;;10.06;85.14
70343;BME280;57767;42.068;24.752;2022-12-18T05:59:55;99786.63;;;10.01;85.81
70343;BME280;57767;42.068;24.752;2022-12-18T06:00:58;99783.47;;;10.06;85.06
70343;BME280;57767;42.068;24.752;2022-12-18T06:02:06;99791.38;;;10.06;85.93
70343;BME280;57767;42.068;24.752;2022-12-18T06:03:10;99788.91;;;10.04;85.24
70343;BME280;57767;42.068;24.752;2022-12-18T06:04:13;99793.19;;;10.05;85.00
70343;BME280;57767;42.068;24.752;2022-12-18T06:05:15;99794.38;;;10.03;85.57
70343;BME280;57767;42.068;24.752;2022-12-18T06:06:22;99797.19;;;10.01;85.67
70343;BME280;57767;42.068;24.752;2022-12-18T06:07:24;99781.56;;;10.00;85.61